Time;durP1;ratioP1;P1;durP2;ratioP2;P2;SDS_P1;SDS_P2;PMS_P1;PMS_P2;Temp;Humidity;BMP_temperature;BMP_pressure;BME280_temperature;BME280_humidity;BME280_pressure;Samples;Min_cycle;Max_cycle;Signal;HPM_P1;HPM_P2
2021/10/25 00:02:01;;;;;;;5.10;2.30;;;;;;;5.71;65.93;100559.26;27273;1209;3025783;-74
2021/10/25 00:04:31;;;;;;;5.60;2.90;;;;;;;5.78;65.85;100564.66;27282;1216;3026727;-73
2021/10/25 00:06:59;;;;;;;7.50;3.10;;;;;;;5.71;66.06;100569.71;27267;1216;3026925;-68
2021/10/25 00:09:28;;;;;;;7.00;2.60;;;;;;;5.72;66.14;100565.67;27230;1216;3026236;-69
2021/10/25 00:11:57;;;;;;;8.70;3.00;;;;;;;5.68;66.12;100570.63;27251;1215;3052366;-71
2021/10/25 00:14:26;;;;;;;9.50;3.30;;;;;;;5.74;66.19;100570.32;27302;1209;3025976;-70
2021/10/25 00:16:55;;;;;;;7.00;2.60;;;;;;;5.73;66.31;100571.03;27268;1215;3057806;-71
2021/10/25 00:19:33;;;;;;;4.70;2.30;;;;;;;6.28;64.92;100573.92;27254;1214;3049137;-70
2021/10/25 00:22:22;;;;;;;8.10;2.70;;;;;;;6.63;63.44;100570.06;27266;1215;3052029;-67
2021/10/25 00:24:51;;;;;;;6.40;2.90;;;;;;;6.69;63.22;100573.39;27269;1214;3025985;-70
2021/10/25 00:27:20;;;;;;;5.70;3.00;;;;;;;6.55;63.24;100575.67;27246;1216;3051733;-72
2021/10/25 00:29:49;;;;;;;7.70;2.80;;;;;;;6.38;63.69;100572.96;27236;1216;3025958;-68
2021/10/25 00:32:18;;;;;;;8.10;3.00;;;;;;;6.27;64.26;100577.10;27287;1216;3057862;-73
2021/10/25 00:34:47;;;;;;;8.40;3.20;;;;;;;6.10;64.53;100586.88;27255;1215;3029430;-67
2021/10/25 00:37:16;;;;;;;6.30;3.10;;;;;;;6.00;64.97;100577.90;27258;1216;3053190;-74
2021/10/25 00:39:45;;;;;;;6.70;3.30;;;;;;;5.91;65.16;100577.21;27304;1216;3027228;-74
2021/10/25 00:42:14;;;;;;;10.30;3.60;;;;;;;5.82;65.56;100585.09;27262;1215;3053383;-70
2021/10/25 00:44:44;;;;;;;6.40;3.70;;;;;;;5.74;65.77;100580.57;27279;1215;3026322;-69
2021/10/25 00:47:13;;;;;;;14.60;4.20;;;;;;;5.67;65.75;100581.23;27280;1215;3047050;-68
2021/10/25 00:49:42;;;;;;;14.20;4.50;;;;;;;5.61;66.21;100585.56;27286;1215;3029424;-73
2021/10/25 00:52:12;;;;;;;15.60;5.90;;;;;;;5.63;66.44;100589.34;27247;1216;3026449;-68
2021/10/25 00:54:41;;;;;;;16.50;6.70;;;;;;;5.58;66.33;100587.38;27256;1216;3046677;-69
2021/10/25 00:57:10;;;;;;;17.40;6.70;;;;;;;5.54;66.46;100591.96;27237;1209;3026566;-68
2021/10/25 00:59:40;;;;;;;17.30;7.70;;;;;;;5.60;65.95;100597.40;27283;1216;3026229;-73
2021/10/25 01:02:09;;;;;;;14.60;5.80;;;;;;;5.62;66.11;100597.71;27268;1215;3026544;-69
2021/10/25 01:04:41;;;;;;;10.80;4.30;;;;;;;5.56;66.15;100597.99;27258;1215;3053493;-67
2021/10/25 01:07:10;;;;;;;7.60;3.30;;;;;;;5.54;66.06;100599.09;27228;1216;3026131;-72
2021/10/25 01:09:40;;;;;;;8.40;3.70;;;;;;;5.54;66.04;100606.39;27253;1218;3026845;-73
2021/10/25 01:12:09;;;;;;;6.10;2.90;;;;;;;5.48;66.24;100603.90;27254;1216;3054773;-71
2021/10/25 01:14:38;;;;;;;4.50;2.60;;;;;;;5.38;66.37;100605.51;27291;1212;3026269;-72
2021/10/25 01:17:07;;;;;;;6.00;3.00;;;;;;;5.35;66.45;100600.70;27280;1215;3029155;-74
2021/10/25 01:19:37;;;;;;;8.20;3.50;;;;;;;5.33;66.31;100600.06;27283;1215;3053908;-71
2021/10/25 01:22:10;;;;;;;10.60;5.20;;;;;;;5.28;66.25;100609.36;27268;1215;3050242;-70
2021/10/25 01:24:42;;;;;;;12.40;5.20;;;;;;;5.34;66.16;100611.67;27225;1216;3026123;-68
2021/10/25 01:27:11;;;;;;;12.40;5.20;;;;;;;5.30;66.47;100614.70;27221;1215;3027011;-69
2021/10/25 01:29:40;;;;;;;9.30;3.70;;;;;;;5.28;66.54;100619.10;27312;1216;3026375;-69
2021/10/25 01:32:09;;;;;;;10.00;4.60;;;;;;;5.24;66.66;100623.70;27252;1215;3026540;-71
2021/10/25 01:34:40;;;;;;;6.40;2.90;;;;;;;5.28;66.94;100622.92;27276;1216;3050908;-73
2021/10/25 01:37:10;;;;;;;5.50;2.80;;;;;;;5.98;65.07;100626.98;27311;1214;3027346;-68
2021/10/25 01:39:41;;;;;;;7.70;2.80;;;;;;;6.45;63.21;100625.71;27292;1216;3026409;-69
2021/10/25 01:42:10;;;;;;;10.10;3.40;;;;;;;6.44;62.62;100634.61;27206;1216;3025835;-70
2021/10/25 01:44:40;;;;;;;12.20;4.20;;;;;;;6.31;62.74;100634.41;27256;1216;3054081;-72
2021/10/25 01:47:09;;;;;;;11.60;4.30;;;;;;;6.20;63.01;100639.35;27297;1209;3025789;-72
2021/10/25 01:49:39;;;;;;;13.50;5.10;;;;;;;5.88;64.05;100640.23;27255;1214;3027410;-68
2021/10/25 01:52:08;;;;;;;11.30;4.60;;;;;;;5.80;64.44;100637.29;27238;1216;3026023;-71
2021/10/25 01:54:42;;;;;;;;;;;;;;;5.66;64.64;100642.64;27350;1215;3051379;-73
2021/10/25 01:57:12;;;;;;;7.50;3.30;;;;;;;5.57;65.09;100646.66;27282;1215;3027076;-70
2021/10/25 01:59:41;;;;;;;7.40;3.70;;;;;;;5.51;65.23;100644.69;27260;1216;3028124;-73
2021/10/25 02:02:11;;;;;;;7.00;3.20;;;;;;;5.49;65.35;100647.52;27261;1215;3027008;-70
2021/10/25 02:04:41;;;;;;;9.60;4.10;;;;;;;5.33;65.56;100653.22;27239;1216;3026503;-68
2021/10/25 02:07:11;;;;;;;9.30;5.00;;;;;;;5.30;65.58;100656.77;27256;1216;3028268;-71
2021/10/25 02:09:41;;;;;;;6.20;3.10;;;;;;;5.22;65.78;100662.10;27207;1216;3027840;-66
2021/10/25 02:12:10;;;;;;;6.60;3.10;;;;;;;5.19;65.59;100660.09;27217;1216;3026803;-70
2021/10/25 02:14:40;;;;;;;12.20;3.60;;;;;;;5.19;65.63;100662.88;27230;1216;3026328;-70
2021/10/25 02:17:09;;;;;;;5.80;3.30;;;;;;;5.18;65.50;100666.71;27235;1215;3026358;-71
2021/10/25 02:19:51;;;;;;;6.60;2.70;;;;;;;5.15;65.42;100669.38;27264;1216;3055255;-69
2021/10/25 02:22:23;;;;;;;6.70;2.80;;;;;;;5.19;65.17;100668.08;27270;1215;3028482;-71
2021/10/25 02:24:52;;;;;;;6.50;2.80;;;;;;;5.22;64.93;100669.08;27205;1215;3027147;-72
2021/10/25 02:27:24;;;;;;;6.20;2.80;;;;;;;5.23;64.96;100675.48;27310;1214;3053144;-70
2021/10/25 02:29:53;;;;;;;5.70;2.80;;;;;;;5.19;64.69;100678.33;27285;1215;3026587;-72
2021/10/25 02:32:26;;;;;;;3.50;2.30;;;;;;;5.11;65.12;100681.10;27247;1215;3026853;-70
2021/10/25 02:34:57;;;;;;;3.50;2.10;;;;;;;5.04;65.21;100680.69;27232;1216;3026356;-72
2021/10/25 02:37:26;;;;;;;6.20;2.50;;;;;;;5.07;65.04;100677.86;27275;1209;3025988;-74
2021/10/25 02:39:57;;;;;;;4.20;2.30;;;;;;;5.04;64.68;100686.25;27275;1216;3027217;-67
2021/10/25 02:42:26;;;;;;;4.20;2.80;;;;;;;5.03;64.81;100687.48;27270;1216;3026804;-69
2021/10/25 02:44:55;;;;;;;6.80;3.20;;;;;;;5.09;64.95;100687.90;27247;1216;3053837;-68
2021/10/25 02:47:23;;;;;;;5.20;2.50;;;;;;;5.10;64.88;100689.98;27251;1200;3029111;-75
2021/10/25 02:49:53;;;;;;;9.60;3.70;;;;;;;5.11;64.77;100693.43;27264;1209;3048069;-73
2021/10/25 02:52:24;;;;;;;8.70;3.70;;;;;;;5.08;65.04;100695.04;27317;1215;3028124;-69
2021/10/25 02:54:53;;;;;;;10.50;3.70;;;;;;;5.12;64.60;100696.52;27277;1214;3025897;-72
2021/10/25 02:57:23;;;;;;;9.30;3.10;;;;;;;5.14;64.64;100705.17;27217;1216;3026898;-71
2021/10/25 02:59:52;;;;;;;10.00;3.60;;;;;;;5.03;65.06;100707.62;27235;1216;3026241;-71
2021/10/25 03:02:21;;;;;;;15.30;3.80;;;;;;;5.01;65.35;100709.06;27215;1216;3028159;-70
2021/10/25 03:04:51;;;;;;;9.70;3.80;;;;;;;4.98;65.49;100708.25;27222;1216;3027844;-69
2021/10/25 03:07:21;;;;;;;9.50;3.90;;;;;;;4.99;65.50;100706.31;27224;1215;3050402;-73
2021/10/25 03:09:50;;;;;;;9.80;3.80;;;;;;;4.99;65.55;100708.04;27241;1216;3026077;-74
2021/10/25 03:12:19;;;;;;;17.50;5.20;;;;;;;4.98;65.72;100707.02;27250;1216;3058122;-65
2021/10/25 03:14:49;;;;;;;12.60;5.00;;;;;;;4.95;65.96;100710.21;27265;1215;3026115;-71
2021/10/25 03:17:18;;;;;;;22.00;6.60;;;;;;;5.06;65.73;100706.02;27248;1216;3025865;-73
2021/10/25 03:20:01;;;;;;;25.00;10.10;;;;;;;5.11;65.50;100709.75;27308;1216;3056348;-72
2021/10/25 03:22:30;;;;;;;29.70;11.10;;;;;;;5.07;65.69;100706.86;27231;1215;3026381;-70
2021/10/25 03:24:59;;;;;;;36.30;13.30;;;;;;;5.00;66.01;100711.68;27319;1209;3026448;-72
2021/10/25 03:27:28;;;;;;;35.60;13.20;;;;;;;5.04;65.52;100716.48;27283;1215;3056142;-71
2021/10/25 03:29:57;;;;;;;40.60;14.50;;;;;;;5.04;65.78;100721.48;27279;1214;3026504;-73
2021/10/25 03:32:27;;;;;;;39.10;12.20;;;;;;;4.99;66.02;100720.37;27320;1215;3049802;-69
2021/10/25 03:35:00;;;;;;;42.30;12.10;;;;;;;4.96;66.31;100721.48;27251;1215;3026321;-68
2021/10/25 03:37:29;;;;;;;25.20;8.50;;;;;;;4.93;65.53;100719.09;27224;1216;3026119;-67
2021/10/25 03:39:58;;;;;;;19.80;6.80;;;;;;;4.77;65.35;100721.63;27300;1215;3051975;-69
2021/10/25 03:42:35;;;;;;;11.10;4.80;;;;;;;4.72;65.01;100722.75;27305;1215;3026554;-71
2021/10/25 03:45:15;;;;;;;13.10;4.10;;;;;;;4.71;64.46;100719.64;27253;1216;3052177;-69
2021/10/25 03:50:35;;;;;;;6.10;2.80;;;;;;;4.75;63.20;100731.73;27297;1216;3055632;-70
2021/10/25 04:01:30;;;;;;;5.00;2.10;;;;;;;4.69;64.21;100751.79;27293;1215;3069051;-74
2021/10/25 04:29:27;;;;;;;5.70;2.90;;;;;;;4.58;63.29;100774.52;27290;1216;3051551;-70
2021/10/25 04:31:56;;;;;;;4.50;2.50;;;;;;;4.50;62.54;100774.10;27256;1216;3026541;-68
2021/10/25 04:34:28;;;;;;;10.40;3.50;;;;;;;4.53;62.56;100771.13;27285;1214;3028189;-68
2021/10/25 04:37:23;;;;;;;5.70;2.80;;;;;;;4.58;62.31;100769.31;27252;1215;3049094;-75
2021/10/25 04:40:04;;;;;;;9.40;3.20;;;;;;;4.44;62.15;100773.33;27303;1214;3051958;-72
2021/10/25 04:42:34;;;;;;;7.00;2.60;;;;;;;4.50;62.04;100774.11;27240;1215;3025982;-71
2021/10/25 04:45:03;;;;;;;6.40;2.80;;;;;;;4.54;61.68;100774.91;27270;1215;3026778;-70
2021/10/25 04:47:33;;;;;;;3.70;2.20;;;;;;;4.53;61.63;100773.72;27256;1215;3054780;-73
2021/10/25 04:50:07;;;;;;;4.60;2.30;;;;;;;4.53;61.38;100772.49;27237;1215;3050159;-74
2021/10/25 04:53:06;;;;;;;5.60;2.10;;;;;;;4.48;61.40;100780.56;27247;1216;3070421;-70
2021/10/25 04:55:35;;;;;;;8.40;2.60;;;;;;;4.41;61.41;100786.73;27209;1215;3026346;-71
2021/10/25 04:58:05;;;;;;;7.40;2.50;;;;;;;4.42;61.59;100792.10;27233;1215;3053165;-74
2021/10/25 05:00:34;;;;;;;7.00;2.10;;;;;;;4.48;61.17;100792.02;27215;1214;3026313;-74
2021/10/25 05:03:06;;;;;;;8.40;2.90;;;;;;;4.38;60.90;100802.39;27279;1216;3053829;-72
2021/10/25 05:05:35;;;;;;;5.10;2.50;;;;;;;4.41;60.89;100811.02;27254;1215;3028922;-74
2021/10/25 05:08:05;;;;;;;8.70;3.20;;;;;;;4.47;60.70;100812.49;27270;1214;3026004;-75
2021/10/25 05:10:34;;;;;;;6.10;2.90;;;;;;;4.48;60.49;100817.34;27284;1215;3028001;-71
2021/10/25 05:13:07;;;;;;;6.20;2.50;;;;;;;4.35;60.82;100819.77;27233;1215;3025640;-69
2021/10/25 05:15:36;;;;;;;6.10;2.10;;;;;;;4.41;60.48;100823.52;27247;1209;3026104;-72
2021/10/25 05:18:05;;;;;;;4.50;2.40;;;;;;;4.37;60.52;100825.30;27313;1215;3050699;-68
2021/10/25 05:20:34;;;;;;;8.70;2.80;;;;;;;4.44;60.46;100826.59;27246;1216;3026046;-77
2021/10/25 05:23:04;;;;;;;8.00;3.40;;;;;;;4.40;60.42;100828.55;27233;1215;3069924;-72
2021/10/25 05:25:33;;;;;;;5.40;2.90;;;;;;;4.38;60.55;100834.83;27282;1206;3025867;-70
2021/10/25 05:28:03;;;;;;;4.80;2.10;;;;;;;4.45;60.46;100836.30;27284;1214;3053075;-73
2021/10/25 05:30:34;;;;;;;6.30;2.00;;;;;;;4.42;60.23;100843.45;27274;1214;3027303;-71
2021/10/25 05:33:03;;;;;;;9.00;2.60;;;;;;;4.34;60.37;100851.87;27283;1214;3029836;-68
2021/10/25 05:35:33;;;;;;;6.50;2.20;;;;;;;4.39;60.45;100855.80;27240;1215;3026182;-72
2021/10/25 05:38:02;;;;;;;7.10;2.70;;;;;;;4.41;60.23;100855.97;27243;1215;3028075;-71
2021/10/25 05:40:31;;;;;;;8.80;3.40;;;;;;;4.45;60.26;100863.02;27285;1214;3025986;-70
2021/10/25 05:43:02;;;;;;;9.60;2.40;;;;;;;4.43;60.22;100867.55;27460;1215;3049956;-70
2021/10/25 05:45:33;;;;;;;8.80;2.60;;;;;;;4.53;60.04;100870.02;27356;1215;3025889;-68
2021/10/25 05:48:02;;;;;;;7.90;2.40;;;;;;;4.57;59.91;100873.61;27255;1209;3026808;-68
2021/10/25 05:50:32;;;;;;;9.70;2.90;;;;;;;4.50;59.83;100877.19;27260;1215;3026449;-72
2021/10/25 05:53:02;;;;;;;5.60;2.00;;;;;;;4.52;59.76;100884.44;27288;1215;3027768;-75
2021/10/25 05:55:31;;;;;;;9.30;2.70;;;;;;;4.50;59.89;100889.15;27274;1214;3026823;-73
2021/10/25 05:58:01;;;;;;;7.80;2.70;;;;;;;4.47;59.96;100896.48;27243;1214;3026133;-75
2021/10/25 06:00:34;;;;;;;5.70;3.00;;;;;;;4.58;59.80;100891.82;27247;1216;3026031;-68
2021/10/25 06:03:04;;;;;;;9.10;2.80;;;;;;;4.66;59.62;100894.84;27299;1214;3053672;-70
2021/10/25 06:05:33;;;;;;;5.60;2.90;;;;;;;4.68;59.53;100899.16;27264;1216;3025964;-67
2021/10/25 06:08:04;;;;;;;5.90;2.80;;;;;;;4.63;59.44;100909.45;27321;1215;3025932;-72
2021/10/25 06:10:35;;;;;;;7.20;2.60;;;;;;;4.67;59.26;100905.24;27276;1215;3026260;-71
2021/10/25 06:13:11;;;;;;;9.90;2.80;;;;;;;4.58;59.40;100907.27;27245;1218;3055333;-71
2021/10/25 06:18:59;;;;;;;10.80;2.60;;;;;;;4.95;58.64;100904.34;27216;1218;3068539;-74
2021/10/25 06:21:28;;;;;;;5.10;2.80;;;;;;;4.97;58.30;100912.64;27207;1218;3028185;-72
2021/10/25 06:23:59;;;;;;;7.10;3.10;;;;;;;5.08;58.14;100912.48;27243;1218;3026598;-73
2021/10/25 06:26:40;;;;;;;10.10;3.30;;;;;;;5.16;57.61;100914.45;27205;1218;3070535;-72
2021/10/25 06:29:12;;;;;;;4.70;2.30;;;;;;;5.19;57.62;100917.89;27244;1217;3026378;-71
2021/10/25 06:31:41;;;;;;;14.20;2.50;;;;;;;5.19;57.35;100914.23;27228;1218;3025917;-71
2021/10/25 06:34:24;;;;;;;7.20;3.00;;;;;;;5.25;57.00;100907.88;27201;1218;3069219;-73
2021/10/25 06:37:19;;;;;;;7.60;2.70;;;;;;;5.34;56.52;100908.27;27197;1218;3049178;-72
2021/10/25 06:39:56;;;;;;;8.70;2.30;;;;;;;5.45;56.15;100904.10;27222;1218;3051785;-74
2021/10/25 06:42:26;;;;;;;5.80;2.10;;;;;;;5.57;55.83;100903.38;27214;1218;3027687;-71
2021/10/25 06:45:09;;;;;;;8.70;2.30;;;;;;;5.55;55.66;100906.00;27229;1219;3055583;-74
2021/10/25 06:47:42;;;;;;;5.30;2.30;;;;;;;5.61;55.55;100911.48;27225;1217;3048308;-71
2021/10/25 06:50:12;;;;;;;6.10;2.40;;;;;;;5.73;55.18;100909.71;27226;1218;3025972;-76
2021/10/25 06:52:50;;;;;;;5.30;2.30;;;;;;;5.86;54.73;100907.73;27221;1218;3050010;-73
2021/10/25 06:55:20;;;;;;;9.60;2.90;;;;;;;5.97;54.51;100906.50;27204;1215;3026491;-68
2021/10/25 06:57:55;;;;;;;7.40;2.20;;;;;;;5.96;54.29;100912.09;27292;1215;3050862;-69
2021/10/25 07:00:30;;;;;;;10.00;2.30;;;;;;;6.12;53.85;100914.94;27311;1215;3051955;-68
2021/10/25 07:02:59;;;;;;;9.80;2.50;;;;;;;6.12;53.70;100914.59;27268;1215;3028297;-74
2021/10/25 07:05:33;;;;;;;4.20;1.80;;;;;;;6.35;53.34;100917.81;27312;1215;3026423;-69
2021/10/25 07:08:05;;;;;;;6.60;2.10;;;;;;;6.49;52.84;100915.41;27271;1215;3049108;-73
2021/10/25 07:10:35;;;;;;;7.30;2.10;;;;;;;6.59;52.33;100917.67;27328;1215;3025921;-71
2021/10/25 07:13:05;;;;;;;6.60;2.30;;;;;;;6.75;52.27;100919.77;27281;1215;3026920;-66
2021/10/25 07:15:44;;;;;;;6.10;2.30;;;;;;;6.85;51.71;100916.75;27237;1215;3026035;-74
2021/10/25 07:26:11;;;;;;;8.60;2.70;;;;;;;7.04;51.23;100917.89;27436;1215;3053546;-73
2021/10/25 08:07:44;;;;;;;7.80;2.30;;;;;;;8.10;47.16;100937.61;27282;1215;3054087;-72
2021/10/25 08:10:43;;;;;;;4.60;2.30;;;;;;;8.13;46.68;100937.00;27280;1215;3051778;-71
2021/10/25 08:13:15;;;;;;;5.70;1.90;;;;;;;8.23;46.42;100939.69;27331;1216;3056233;-74
2021/10/25 08:15:45;;;;;;;4.50;2.20;;;;;;;8.27;45.63;100944.30;27258;1210;3026382;-74
2021/10/25 08:21:06;;;;;;;5.50;1.80;;;;;;;8.24;44.65;100941.05;27221;1218;3051239;-70
2021/10/25 08:23:38;;;;;;;4.40;2.10;;;;;;;8.30;45.25;100942.83;27218;1216;3026526;-72
2021/10/25 08:26:19;;;;;;;5.70;2.10;;;;;;;8.42;44.92;100941.44;27235;1217;3048110;-68
2021/10/25 08:28:49;;;;;;;6.10;2.40;;;;;;;8.64;44.26;100933.85;27318;1216;3028878;-73
2021/10/25 08:31:19;;;;;;;4.80;2.10;;;;;;;8.74;43.45;100931.81;27256;1216;3026627;-72
2021/10/25 08:42:33;;;;;;;3.80;1.40;;;;;;;9.26;40.29;100933.21;27285;1215;3051267;-75
2021/10/25 08:45:19;;;;;;;3.10;1.80;;;;;;;9.22;39.31;100936.84;27211;1215;3070499;-73
2021/10/25 08:47:49;;;;;;;10.20;1.90;;;;;;;9.13;39.76;100942.35;27246;1217;3049072;-72
2021/10/25 08:50:22;;;;;;;3.30;1.80;;;;;;;9.14;39.60;100946.87;27291;1218;3027447;-72
2021/10/25 08:52:51;;;;;;;10.10;1.80;;;;;;;9.37;39.81;100941.96;27345;1216;3026228;-72
2021/10/25 08:55:21;;;;;;;6.00;2.00;;;;;;;9.36;39.39;100946.88;27339;1217;3026559;-72
2021/10/25 08:57:50;;;;;;;5.10;1.80;;;;;;;9.13;39.38;100948.81;27328;1210;3028593;-66
2021/10/25 09:00:39;;;;;;;5.60;2.50;;;;;;;9.06;39.64;100945.37;27356;1215;3054660;-77
2021/10/25 09:03:44;;;;;;;3.40;1.60;;;;;;;8.93;39.91;100953.63;27304;1216;3058990;-67
2021/10/25 09:06:16;;;;;;;5.60;1.70;;;;;;;9.09;39.77;100952.81;27258;1215;3026168;-76
2021/10/25 09:08:58;;;;;;;4.10;1.80;;;;;;;9.08;39.43;100954.04;27317;1215;3026367;-68
2021/10/25 09:11:28;;;;;;;4.90;1.50;;;;;;;8.81;38.29;100959.77;27323;1217;3053761;-69
2021/10/25 09:14:14;;;;;;;7.20;1.90;;;;;;;8.62;38.29;100962.02;27310;1215;3069980;-74
2021/10/25 09:16:47;;;;;;;4.80;2.00;;;;;;;8.48;38.40;100965.93;27260;1216;3049372;-68
2021/10/25 09:19:46;;;;;;;4.80;1.80;;;;;;;8.65;38.21;100960.90;27299;1215;3054534;-76
2021/10/25 09:22:18;;;;;;;6.40;2.30;;;;;;;8.92;37.83;100955.58;27352;1216;3025732;-74
2021/10/25 09:24:57;;;;;;;8.40;1.70;;;;;;;9.26;37.27;100952.61;27363;1215;3026078;-77
2021/10/25 09:27:47;;;;;;;6.00;2.10;;;;;;;9.35;36.99;100952.17;27351;1215;3051887;-71
2021/10/25 09:30:53;;;;;;;3.90;1.30;;;;;;;9.47;36.87;100961.03;27202;1220;3053739;-70
2021/10/25 09:33:24;;;;;;;6.20;1.40;;;;;;;9.61;35.76;100958.52;27207;1221;3028135;-68
2021/10/25 09:36:13;;;;;;;2.40;1.40;;;;;;;9.70;35.42;100948.76;27251;1218;3070937;-69
2021/10/25 09:39:02;;;;;;;10.40;1.40;;;;;;;9.73;35.20;100947.27;27296;1218;3048394;-70
2021/10/25 09:50:02;;;;;;;4.30;1.10;;;;;;;10.69;33.50;100947.75;27223;1218;3049365;-74
2021/10/25 09:52:38;;;;;;;3.50;1.40;;;;;;;10.84;33.81;100943.84;27227;1219;3051976;-72
2021/10/25 09:55:13;;;;;;;4.90;1.60;;;;;;;11.05;33.34;100943.92;27249;1219;3050677;-74
2021/10/25 10:00:39;;;;;;;3.80;1.40;;;;;;;10.34;34.37;100945.88;27248;1218;3048463;-71
2021/10/25 10:03:08;;;;;;;2.00;1.10;;;;;;;9.62;35.74;100949.52;27224;1219;3026216;-71
2021/10/25 10:06:00;;;;;;;3.90;1.40;;;;;;;9.52;36.06;100950.20;27305;1209;3054802;-74
2021/10/25 10:08:33;;;;;;;6.80;1.70;;;;;;;9.46;36.32;100950.43;27371;1215;3056286;-77
2021/10/25 10:11:05;;;;;;;4.60;1.60;;;;;;;9.50;36.38;100948.36;27344;1216;3026079;-74
2021/10/25 10:13:34;;;;;;;2.70;1.20;;;;;;;9.53;36.36;100953.33;27336;1215;3026944;-73
2021/10/25 10:16:12;;;;;;;5.20;1.30;;;;;;;9.70;36.15;100953.30;27304;1216;3051479;-79
2021/10/25 10:18:47;;;;;;;4.20;1.00;;;;;;;10.03;35.55;100950.44;27347;1209;3026404;-74
2021/10/25 10:21:36;;;;;;;3.20;1.50;;;;;;;10.27;34.87;100946.61;27387;1215;3048262;-68
2021/10/25 10:24:17;;;;;;;3.60;1.40;;;;;;;10.24;34.80;100941.45;27298;1216;3050906;-73
2021/10/25 10:26:58;;;;;;;5.80;1.30;;;;;;;10.29;34.53;100942.19;27438;1219;3027741;-71
2021/10/25 10:29:35;;;;;;;4.30;1.50;;;;;;;10.34;34.86;100937.45;27336;1215;3055888;-77
2021/10/25 10:32:15;;;;;;;3.20;1.30;;;;;;;10.46;34.94;100937.73;27242;1215;3051598;-76
2021/10/25 10:35:05;;;;;;;4.80;1.70;;;;;;;10.56;34.68;100937.73;27328;1216;3055352;-75
2021/10/25 10:38:03;;;;;;;12.20;1.50;;;;;;;10.55;34.56;100941.98;27290;1218;3054172;-74
2021/10/25 10:40:46;;;;;;;3.70;1.40;;;;;;;10.36;34.33;100941.92;27488;1216;3067856;-74
2021/10/25 10:43:26;;;;;;;2.90;1.10;;;;;;;10.00;35.06;100940.73;27465;1218;3026185;-74
2021/10/25 10:46:01;;;;;;;3.50;1.20;;;;;;;9.70;35.55;100945.42;27372;1216;3053282;-73
2021/10/25 10:48:34;;;;;;;5.50;1.50;;;;;;;9.64;35.90;100946.48;27343;1216;3071182;-72
2021/10/25 10:51:07;;;;;;;6.30;1.80;;;;;;;9.85;35.66;100946.31;27289;1215;3047876;-76
2021/10/25 10:53:50;;;;;;;7.00;1.70;;;;;;;10.13;35.33;100943.95;27354;1215;3026256;-73
2021/10/25 10:56:53;;;;;;;8.70;1.70;;;;;;;10.52;34.29;100939.61;27300;1215;3054368;-74
2021/10/25 11:01:57;;;;;;;3.00;1.60;;;;;;;10.38;33.87;100946.05;27365;1215;3049725;-69
2021/10/25 11:04:36;;;;;;;6.60;1.60;;;;;;;10.12;34.22;100943.65;27348;1215;3025986;-77
2021/10/25 11:07:05;;;;;;;4.50;2.40;;;;;;;10.35;34.17;100943.73;27382;1215;3050282;-68
2021/10/25 11:09:35;;;;;;;4.40;2.30;;;;;;;10.41;34.13;100941.94;27358;1215;3028717;-66
2021/10/25 11:12:09;;;;;;;5.30;2.70;;;;;;;10.11;34.07;100949.64;27327;1209;3026324;-76
2021/10/25 11:14:40;;;;;;;5.30;1.90;;;;;;;9.72;34.76;100947.80;27295;1215;3051619;-76
2021/10/25 11:19:51;;;;;;;3.60;1.40;;;;;;;9.26;35.70;100953.14;27296;1215;3028383;-72
2021/10/25 11:22:34;;;;;;;9.30;2.00;;;;;;;9.30;35.79;100944.96;27341;1216;3051732;-71
2021/10/25 11:25:07;;;;;;;6.30;2.50;;;;;;;9.60;35.44;100942.60;27367;1215;3051262;-75
2021/10/25 11:27:36;;;;;;;4.90;2.10;;;;;;;9.75;35.30;100939.32;27372;1216;3026506;-70
2021/10/25 11:30:16;;;;;;;5.50;2.20;;;;;;;9.75;35.22;100941.08;27352;1216;3027690;-71
2021/10/25 11:32:45;;;;;;;4.70;2.30;;;;;;;9.97;35.08;100941.70;27347;1215;3052414;-71
2021/10/25 11:35:16;;;;;;;7.40;2.00;;;;;;;10.14;34.63;100944.27;27324;1215;3028357;-73
2021/10/25 11:37:52;;;;;;;5.20;1.80;;;;;;;9.89;34.71;100941.27;27331;1215;3026448;-72
2021/10/25 11:40:24;;;;;;;3.40;1.90;;;;;;;9.71;35.19;100941.19;27316;1215;3052698;-72
2021/10/25 11:42:58;;;;;;;3.50;1.90;;;;;;;9.57;35.27;100942.52;27360;1215;3026693;-71
2021/10/25 11:45:27;;;;;;;5.20;1.90;;;;;;;9.39;35.49;100941.54;27268;1216;3067359;-67
2021/10/25 11:47:56;;;;;;;8.10;1.90;;;;;;;9.67;35.38;100943.23;27323;1216;3026068;-74
2021/10/25 11:50:28;;;;;;;7.40;2.00;;;;;;;9.85;34.81;100942.84;27295;1215;3049972;-74
2021/10/25 11:52:58;;;;;;;4.80;1.60;;;;;;;9.95;34.31;100943.19;27286;1215;3028438;-74
2021/10/25 11:55:32;;;;;;;8.30;1.90;;;;;;;9.90;34.57;100936.69;27331;1215;3026381;-72
2021/10/25 11:58:08;;;;;;;;;;;;;;;10.08;34.28;100932.94;27373;1216;3051009;-69
2021/10/25 12:00:39;;;;;;;3.00;1.60;;;;;;;10.06;34.28;100933.53;27290;1216;3055282;-70
2021/10/25 12:03:28;;;;;;;7.30;2.10;;;;;;;9.76;34.29;100945.40;27330;1216;3058955;-74
2021/10/25 12:06:01;;;;;;;3.50;2.10;;;;;;;9.66;34.63;100943.27;27365;1215;3026186;-72
2021/10/25 12:08:30;;;;;;;5.30;2.00;;;;;;;9.43;34.89;100943.50;27315;1215;3025656;-74
2021/10/25 12:10:58;;;;;;;3.90;1.70;;;;;;;9.57;34.83;100942.17;27325;1216;3055395;-73
2021/10/25 12:13:28;;;;;;;5.10;1.80;;;;;;;9.94;34.39;100942.02;27328;1216;3027002;-75
2021/10/25 12:16:01;;;;;;;6.20;1.90;;;;;;;10.00;34.20;100941.25;27387;1216;3026561;-64
2021/10/25 12:18:30;;;;;;;6.40;2.00;;;;;;;10.23;33.89;100942.71;27367;1216;3027911;-76
2021/10/25 12:21:09;;;;;;;7.70;1.90;;;;;;;10.15;33.75;100943.39;27308;1215;3026657;-76
2021/10/25 12:23:47;;;;;;;4.70;1.80;;;;;;;10.29;33.60;100944.46;27335;1215;3053054;-73
2021/10/25 12:26:16;;;;;;;4.00;1.60;;;;;;;10.55;33.00;100945.64;27292;1215;3052792;-74
2021/10/25 12:28:45;;;;;;;4.20;1.80;;;;;;;10.51;32.99;100941.92;27435;1215;3026448;-71
2021/10/25 12:31:15;;;;;;;8.30;1.60;;;;;;;10.31;33.35;100940.52;27348;1216;3052111;-72
2021/10/25 12:33:47;;;;;;;3.60;1.60;;;;;;;10.24;33.50;100938.48;27367;1216;3027765;-72
2021/10/25 12:36:19;;;;;;;5.00;1.50;;;;;;;10.38;33.24;100942.56;27320;1215;3027181;-71
2021/10/25 12:38:53;;;;;;;3.20;2.00;;;;;;;10.55;32.89;100944.77;27298;1215;3027945;-72
2021/10/25 12:41:22;;;;;;;5.00;2.30;;;;;;;10.77;32.66;100950.44;27375;1215;3051992;-74
2021/10/25 12:43:55;;;;;;;5.40;1.80;;;;;;;10.76;32.37;100949.05;27370;1215;3028274;-75
2021/10/25 12:46:32;;;;;;;4.60;1.60;;;;;;;10.68;32.72;100946.90;27277;1218;3055434;-71
2021/10/25 12:49:02;;;;;;;9.20;2.20;;;;;;;10.90;32.58;100948.20;27332;1216;3049688;-72
2021/10/25 12:51:37;;;;;;;8.10;2.50;;;;;;;11.06;32.29;100949.52;27359;1215;3027049;-77
2021/10/25 12:54:08;;;;;;;4.80;1.70;;;;;;;11.21;31.82;100946.64;27348;1216;3050681;-75
2021/10/25 12:56:37;;;;;;;8.40;1.80;;;;;;;11.29;31.65;100941.75;27343;1216;3026669;-69
2021/10/25 12:59:08;;;;;;;4.80;2.20;;;;;;;11.45;31.28;100947.63;27426;1215;3025787;-74
2021/10/25 13:01:49;;;;;;;8.40;1.90;;;;;;;11.30;31.48;100944.52;27366;1215;3052676;-72
2021/10/25 13:04:18;;;;;;;5.60;2.10;;;;;;;11.32;31.08;100942.52;27265;1215;3070726;-72
2021/10/25 13:06:48;;;;;;;7.90;2.10;;;;;;;11.24;31.25;100946.33;27295;1215;3028232;-76
2021/10/25 13:09:17;;;;;;;7.20;2.40;;;;;;;11.26;31.34;100943.09;27347;1215;3027791;-75
2021/10/25 13:11:48;;;;;;;12.10;2.90;;;;;;;11.22;31.29;100945.19;27265;1215;3026416;-78
2021/10/25 13:14:17;;;;;;;6.80;2.60;;;;;;;11.34;31.22;100942.98;27287;1215;3025887;-69
2021/10/25 13:16:51;;;;;;;8.90;2.50;;;;;;;11.19;31.57;100949.00;27279;1215;3026425;-71
2021/10/25 13:19:21;;;;;;;6.80;2.10;;;;;;;11.31;31.68;100946.05;27378;1215;3052745;-73
2021/10/25 13:21:50;;;;;;;12.60;2.80;;;;;;;11.26;31.51;100949.41;27333;1215;3026713;-71
2021/10/25 13:24:19;;;;;;;4.80;2.50;;;;;;;11.23;31.13;100949.00;27274;1215;3048411;-74
2021/10/25 13:26:49;;;;;;;6.80;2.30;;;;;;;11.19;31.50;100945.67;27281;1216;3028096;-76
2021/10/25 13:29:18;;;;;;;10.40;2.50;;;;;;;11.21;31.38;100949.61;27338;1214;3055637;-77
2021/10/25 13:31:46;;;;;;;8.50;2.40;;;;;;;11.27;31.24;100953.41;27270;1216;3026842;-74
2021/10/25 13:34:18;;;;;;;10.00;2.30;;;;;;;11.39;31.08;100950.30;27274;1216;3051495;-75
2021/10/25 13:36:47;;;;;;;8.00;2.50;;;;;;;11.47;31.23;100951.91;27300;1215;3025950;-72